Dobrodošli na spletni strani vremenske postaje Senovo. Vse informacije so informativnega značaja, saj vremenska postaja ni del državne mreže meteoroloških postaj. AKTUALNIH OBVESTIL NI.


Posebna pozornost v zvezi z vremenskimi dogajanji ni potrebna.    Posebna pozornost v zvezi z vremenskimi dogajanji ni potrebna.

Pogled proti Armezu več informacij Pogled proti Armezu


Lisca več informacij Lisca


Radar strel več informacij blitzortung!


Radar padavin več informacij rain snow radar


Obiščite še:

Template documentation
and downloads

And another site



Weather Underground, zgodovina - Tekstovno

Dnevni povzetek za Januar 2, 2018 Enote:  Angleško    Metrično   Obe
« Predhodni Dan
Naslednji Dan »
Dnevni Tedenski Mesečni Letni Po meri
  Višja: Nižja: Povprečje:
Temperatura: TemperatureC °F 1.2 °F 3.6 °F
Točka rosišča: DewpointC °F 0.6 °F 2.6 °F
Vlažnost: Humidity % 88 % 93 %
Hitrost vetra: WindSpeedKMH mph 0.0 mph 0.9 mph
Sunki vetra: WindSpeedGustKMH mph - -
Veter:- - SW
Zračni tlak: PressurehPa in 1005.0 in -
Padavine: 3.0 in    
Historical Graphs
 
 
Tabelarni podarki za Januar 2, 2018
Čas Temperatura Točka rosišča Zračni tlak Veter Hitrost vetra Sunki vetra Vlažnost Intenziteta padavin (urna)
TemperatureC °F DewpointC °F PressurehPa in Calm     Humidity % HourlyPrecipMM in
00:00 4.6 °F 2.8 °F 1007.0 in East 5.6 mph 10.5 mph 88 % 1.3 in
00:02 4.6 °F 2.8 °F 1007.0 in ENE 5.0 mph 9.3 mph 88 % 1.0 in
00:07 4.5 °F 2.7 °F 1007.0 in ENE 3.4 mph 6.1 mph 88 % 1.0 in
00:09 4.5 °F 2.7 °F 1007.0 in ENE 3.4 mph 7.9 mph 88 % 0.8 in
00:14 4.5 °F 2.7 °F 1006.0 in ESE 4.5 mph 10.1 mph 88 % 0.5 in
00:19 4.6 °F 2.8 °F 1006.0 in East 6.1 mph 10.1 mph 88 % 0.3 in
00:22 4.6 °F 2.8 °F 1006.0 in ENE 6.8 mph 10.1 mph 88 % 0.3 in
00:24 4.6 °F 2.8 °F 1006.0 in NE 6.9 mph 10.1 mph 88 % 0.3 in
00:26 4.5 °F 2.7 °F 1006.0 in NE 6.8 mph 10.1 mph 88 % 0.5 in
00:27 4.5 °F 2.7 °F 1006.0 in NE 6.6 mph 10.1 mph 88 % 0.5 in
00:32 4.5 °F 2.7 °F 1006.0 in WSW 6.6 mph 10.5 mph 88 % 0.3 in
00:37 4.4 °F 2.7 °F 1006.0 in SW 4.7 mph 10.5 mph 89 % 0.3 in
00:38 4.4 °F 2.7 °F 1006.0 in SW 4.7 mph 10.5 mph 89 % 0.3 in
00:39 4.4 °F 2.7 °F 1006.0 in SW 4.3 mph 10.5 mph 89 % 0.3 in
00:44 4.4 °F 2.7 °F 1006.0 in SW 1.1 mph 5.8 mph 89 % 0.5 in
00:45 4.4 °F 2.7 °F 1006.0 in SW 1.1 mph 5.8 mph 89 % 0.5 in
00:50 4.4 °F 2.7 °F 1006.0 in WSW 1.1 mph 6.9 mph 89 % 0.5 in
00:52 4.4 °F 2.7 °F 1006.0 in SW 2.1 mph 6.9 mph 89 % 0.5 in
00:57 4.3 °F 2.7 °F 1006.0 in SW 2.9 mph 6.9 mph 89 % 0.5 in
01:00 4.3 °F 2.7 °F 1006.0 in SW 2.4 mph 6.9 mph 89 % 0.5 in
01:05 4.3 °F 2.7 °F 1006.0 in WSW 1.3 mph 5.0 mph 89 % 0.5 in
01:10 4.3 °F 2.7 °F 1006.0 in WSW 2.6 mph 5.5 mph 89 % 0.5 in
01:15 4.2 °F 2.7 °F 1006.0 in SW 3.5 mph 5.5 mph 90 % 0.8 in
01:20 4.2 °F 2.7 °F 1006.0 in SW 2.4 mph 5.5 mph 90 % 0.8 in
01:22 4.2 °F 2.7 °F 1006.0 in WSW 1.6 mph 4.7 mph 90 % 1.0 in
01:24 4.2 °F 2.7 °F 1006.0 in West 1.0 mph 4.0 mph 90 % 1.0 in
01:29 4.2 °F 2.7 °F 1006.0 in Calm     90 % 1.0 in
01:31 4.2 °F 2.7 °F 1006.0 in SSW 0.3 mph 4.0 mph 90 % 1.0 in
01:36 4.1 °F 2.6 °F 1006.0 in SW 1.1 mph 5.0 mph 90 % 1.3 in
01:39 4.1 °F 2.6 °F 1006.0 in WSW 1.8 mph 5.0 mph 90 % 1.3 in
01:44 4.1 °F 2.6 °F 1006.0 in SW 2.4 mph 6.1 mph 90 % 1.0 in
01:46 4.1 °F 2.6 °F 1006.0 in WSW 2.9 mph 6.1 mph 90 % 1.0 in
01:51 4.1 °F 2.8 °F 1006.0 in SW 3.5 mph 6.1 mph 91 % 1.3 in
01:54 4.1 °F 2.8 °F 1006.0 in WSW 3.9 mph 5.8 mph 91 % 1.3 in
01:56 4.1 °F 2.8 °F 1006.0 in SW 3.1 mph 5.8 mph 91 % 1.5 in
02:01 4.0 °F 2.7 °F 1006.0 in WSW 1.6 mph 5.8 mph 91 % 1.5 in
02:04 4.0 °F 2.7 °F 1006.0 in Calm     91 % 1.5 in
02:09 4.0 °F 2.7 °F 1006.0 in South 0.2 mph 2.6 mph 91 % 1.8 in
02:10 4.0 °F 2.7 °F 1006.0 in South 0.2 mph 2.6 mph 91 % 1.8 in
02:15 4.0 °F 2.7 °F 1006.0 in South 0.2 mph 2.6 mph 91 % 1.8 in
02:16 4.0 °F 2.7 °F 1006.0 in South 0.2 mph 2.6 mph 91 % 1.8 in
02:21 4.0 °F 2.7 °F 1006.0 in Calm     91 % 1.8 in
02:24 4.0 °F 2.7 °F 1006.0 in Calm     91 % 1.8 in
02:29 4.0 °F 2.7 °F 1006.0 in SSE 0.5 mph 5.5 mph 91 % 1.3 in
02:30 4.0 °F 2.7 °F 1006.0 in SSE 0.8 mph 5.5 mph 91 % 1.3 in
02:35 4.0 °F 2.8 °F 1006.0 in SSE 1.0 mph 5.5 mph 92 % 1.3 in
02:39 3.9 °F 2.7 °F 1006.0 in SSE 0.5 mph 3.5 mph 92 % 1.3 in
02:40 3.9 °F 2.7 °F 1006.0 in South 0.2 mph 3.5 mph 92 % 1.3 in
02:44 3.9 °F 2.7 °F 1006.0 in ESE 0.5 mph 4.7 mph 92 % 1.0 in
02:46 3.9 °F 2.7 °F 1006.0 in ESE 0.5 mph 4.7 mph 92 % 1.0 in
02:51 3.9 °F 2.7 °F 1006.0 in ESE 0.5 mph 4.7 mph 92 % 1.0 in
02:56 3.8 °F 2.6 °F 1006.0 in Calm     92 % 0.5 in
02:57 3.8 °F 2.6 °F 1006.0 in Calm     92 % 0.5 in
03:02 3.8 °F 2.8 °F 1006.0 in SW 0.6 mph 3.5 mph 93 % 0.5 in
03:07 3.8 °F 2.8 °F 1006.0 in SW 0.6 mph 3.5 mph 93 % 0.8 in
03:13 3.8 °F 2.8 °F 1006.0 in Calm   4.0 mph 93 % 0.8 in
03:18 3.8 °F 2.8 °F 1006.0 in WSW 1.3 mph 4.3 mph 93 % 0.5 in
03:19 3.8 °F 2.8 °F 1006.0 in WSW 1.3 mph 4.3 mph 93 % 0.5 in
03:24 3.8 °F 2.8 °F 1006.0 in WSW 1.8 mph 4.7 mph 93 % 0.3 in
03:26 3.8 °F 2.8 °F 1006.0 in WSW 1.9 mph 4.7 mph 93 % 0.3 in
03:31 3.8 °F 2.8 °F 1006.0 in SW 1.8 mph 4.7 mph 93 % 0.3 in
03:32 3.8 °F 2.8 °F 1006.0 in SW 1.8 mph 4.7 mph 93 % 0.3 in
03:37 3.7 °F 2.7 °F 1006.0 in WSW 0.2 mph 2.1 mph 93 % 0.3 in
03:38 3.7 °F 2.7 °F 1006.0 in North 0.2 mph   93 % 0.3 in
03:43 3.7 °F 2.7 °F 1007.0 in Calm     93 % 0.3 in
03:44 3.7 °F 2.7 °F 1007.0 in Calm     93 % 0.3 in
03:49 3.7 °F 2.7 °F 1007.0 in Calm     93 % 0.3 in
03:50 3.7 °F 2.7 °F 1007.0 in Calm     93 % 0.3 in
03:55 3.7 °F 2.7 °F 1007.0 in Calm     93 % 0.3 in
04:00 3.7 °F 2.7 °F 1007.0 in Calm     93 % 0.3 in
04:04 3.7 °F 2.8 °F 1007.0 in Calm     94 % 0.3 in
04:06 3.7 °F 2.8 °F 1007.0 in Calm     94 % 0.3 in
04:10 3.7 °F 2.8 °F 1007.0 in Calm     94 % 0.0 in
04:12 3.7 °F 2.8 °F 1007.0 in Calm     94 % 0.0 in
04:17 3.7 °F 2.8 °F 1007.0 in Calm     94 % 0.0 in
04:20 3.7 °F 2.8 °F 1007.0 in Calm     94 % 0.0 in
04:25 3.7 °F 2.8 °F 1007.0 in Calm     94 % 0.0 in
04:29 3.7 °F 2.8 °F 1006.0 in Calm     94 % 0.0 in
04:34 3.7 °F 2.8 °F 1006.0 in Calm     94 % 0.0 in
04:38 3.6 °F 2.7 °F 1006.0 in Calm     94 % 0.0 in
04:43 3.6 °F 2.7 °F 1006.0 in Calm     94 % 0.0 in
04:47 3.6 °F 2.7 °F 1006.0 in Calm     94 % 0.0 in
04:51 3.6 °F 2.7 °F 1006.0 in Calm     94 % 0.0 in
04:56 3.5 °F 2.6 °F 1006.0 in Calm     94 % 0.0 in
04:57 3.4 °F 2.5 °F 1005.0 in Calm     94 % 0.0 in
05:02 3.3 °F 2.4 °F 1005.0 in Calm     94 % 0.0 in
05:08 3.3 °F 2.4 °F 1005.0 in Calm     94 % 0.0 in
05:13 3.2 °F 2.3 °F 1006.0 in Calm     94 % 0.0 in
05:18 3.1 °F 2.2 °F 1006.0 in WNW 0.5 mph 4.3 mph 94 % 0.0 in
05:19 3.1 °F 2.2 °F 1006.0 in WNW 0.3 mph 4.3 mph 94 % 0.0 in
05:24 3.1 °F 2.2 °F 1006.0 in WSW 1.9 mph 5.5 mph 94 % 0.0 in
05:27 3.1 °F 2.2 °F 1006.0 in SW 2.4 mph 5.5 mph 94 % 0.0 in
05:32 3.1 °F 2.2 °F 1006.0 in SW 2.3 mph 4.3 mph 94 % 0.0 in
05:37 3.1 °F 2.2 °F 1006.0 in SW 0.5 mph 3.2 mph 94 % 0.0 in
05:39 3.0 °F 2.1 °F 1006.0 in WNW 0.2 mph 1.4 mph 94 % 0.0 in
05:43 3.0 °F 2.1 °F 1007.0 in Calm   1.4 mph 94 % 0.0 in
05:49 3.0 °F 2.1 °F 1007.0 in Calm     94 % 0.0 in
05:54 3.0 °F 2.1 °F 1007.0 in Calm     94 % 0.0 in
05:58 3.0 °F 2.1 °F 1007.0 in Calm     94 % 0.0 in
06:05 3.1 °F 2.2 °F 1007.0 in Calm     94 % 0.0 in
06:10 3.1 °F 2.2 °F 1007.0 in Calm     94 % 0.0 in
06:12 3.1 °F 2.2 °F 1007.0 in Calm     94 % 0.0 in
06:14 3.1 °F 2.2 °F 1007.0 in SSE 0.2 mph 4.0 mph 94 % 0.0 in
06:18 3.1 °F 2.2 °F 1007.0 in SSE 0.6 mph 4.0 mph 94 % 0.0 in
06:23 3.0 °F 2.1 °F 1007.0 in SSE 0.6 mph 4.0 mph 94 % 0.0 in
06:24 3.0 °F 2.1 °F 1007.0 in SSE 0.6 mph 2.6 mph 94 % 0.0 in
06:26 3.0 °F 2.3 °F 1007.0 in SSE 0.3 mph 2.6 mph 95 % 0.0 in
06:31 3.0 °F 2.3 °F 1008.0 in Calm     95 % 0.0 in
06:32 3.0 °F 2.3 °F 1008.0 in Calm     95 % 0.0 in
06:37 3.0 °F 2.3 °F 1008.0 in Calm     95 % 0.0 in
06:38 3.0 °F 2.3 °F 1008.0 in Calm     95 % 0.0 in
06:43 3.0 °F 2.3 °F 1006.0 in Calm     95 % 0.0 in
06:45 3.0 °F 2.3 °F 1006.0 in Calm     95 % 0.0 in
06:50 3.0 °F 2.3 °F 1006.0 in Calm     95 % 0.0 in
06:55 3.0 °F 2.3 °F 1006.0 in Calm     95 % 0.0 in
06:56 3.0 °F 2.3 °F 1006.0 in Calm     95 % 0.0 in
07:01 3.0 °F 2.3 °F 1007.0 in Calm     95 % 0.0 in
07:06 3.0 °F 2.3 °F 1007.0 in Calm     95 % 0.0 in
07:11 3.0 °F 2.3 °F 1007.0 in Calm     95 % 0.0 in
07:13 2.9 °F 2.2 °F 1007.0 in Calm     95 % 0.0 in
07:19 2.8 °F 2.1 °F 1007.0 in Calm     95 % 0.0 in
07:20 2.8 °F 2.1 °F 1007.0 in Calm     95 % 0.0 in
07:25 2.6 °F 1.9 °F 1007.0 in Calm     95 % 0.0 in
07:30 2.6 °F 1.9 °F 1007.0 in Calm     95 % 0.0 in
07:35 2.5 °F 1.8 °F 1007.0 in Calm     95 % 0.0 in
07:39 2.5 °F 1.8 °F 1007.0 in Calm     95 % 0.0 in
07:43 2.5 °F 1.8 °F 1008.0 in Calm     95 % 0.0 in
07:45 2.5 °F 1.8 °F 1008.0 in Calm     95 % 0.0 in
07:50 2.5 °F 1.8 °F 1008.0 in Calm     95 % 0.0 in
07:55 2.5 °F 1.8 °F 1008.0 in Calm     95 % 0.0 in
07:57 2.5 °F 1.8 °F 1008.0 in Calm     95 % 0.0 in
07:58 2.5 °F 1.8 °F 1008.0 in Calm     95 % 0.0 in
08:02 2.6 °F 1.9 °F 1008.0 in Calm     95 % 0.0 in
08:05 2.6 °F 1.9 °F 1008.0 in Calm     95 % 0.0 in
08:09 2.6 °F 1.9 °F 1008.0 in Calm     95 % 0.0 in
08:14 2.7 °F 2.0 °F 1008.0 in Calm     95 % 0.0 in
08:16 2.7 °F 2.0 °F 1008.0 in Calm     95 % 0.0 in
08:18 2.7 °F 2.0 °F 1008.0 in Calm     95 % 0.0 in
08:23 2.7 °F 2.0 °F 1008.0 in Calm     95 % 0.0 in
08:24 2.7 °F 2.0 °F 1008.0 in Calm     95 % 0.0 in
08:29 2.8 °F 2.2 °F 1009.0 in Calm     96 % 0.0 in
08:32 2.8 °F 2.2 °F 1009.0 in Calm     96 % 0.0 in
08:36 2.8 °F 2.2 °F 1009.0 in Calm     96 % 0.0 in
08:40 2.8 °F 2.2 °F 1009.0 in Calm     96 % 0.0 in
08:44 2.8 °F 2.2 °F 1008.0 in Calm     96 % 0.0 in
08:46 2.9 °F 2.3 °F 1008.0 in Calm     96 % 0.0 in
08:49 2.9 °F 2.3 °F 1008.0 in Calm     96 % 0.0 in
08:54 2.9 °F 2.3 °F 1008.0 in Calm     96 % 0.0 in
09:04 3.0 °F 2.4 °F 1009.0 in Calm     96 % 0.0 in
09:09 3.0 °F 2.4 °F 1009.0 in Calm     96 % 0.0 in
09:10 3.0 °F 2.4 °F 1009.0 in Calm     96 % 0.0 in
09:15 3.1 °F 2.5 °F 1009.0 in Calm     96 % 0.0 in
09:16 3.1 °F 2.5 °F 1009.0 in Calm     96 % 0.0 in
09:17 3.1 °F 2.5 °F 1009.0 in Calm     96 % 0.0 in
09:22 3.1 °F 2.5 °F 1009.0 in Calm     96 % 0.0 in
09:23 3.1 °F 2.5 °F 1009.0 in Calm     96 % 0.0 in
09:28 3.2 °F 2.6 °F 1009.0 in Calm     96 % 0.0 in
09:33 3.3 °F 2.7 °F 1009.0 in Calm     96 % 0.0 in
09:38 3.3 °F 2.7 °F 1009.0 in Calm     96 % 0.0 in
09:40 3.3 °F 2.7 °F 1009.0 in Calm   4.0 mph 96 % 0.0 in
09:44 3.4 °F 2.8 °F 1008.0 in SSW 1.6 mph 5.0 mph 96 % 0.0 in
09:45 3.4 °F 2.8 °F 1008.0 in SSW 2.1 mph 5.0 mph 96 % 0.0 in
09:49 3.4 °F 2.8 °F 1008.0 in SSW 2.9 mph 5.0 mph 96 % 0.0 in
09:54 3.4 °F 2.8 °F 1008.0 in SSW 3.1 mph 4.7 mph 96 % 0.0 in
09:55 3.5 °F 2.9 °F 1008.0 in SSW 3.1 mph 4.7 mph 96 % 0.0 in
10:00 3.6 °F 3.0 °F 1009.0 in SSW 3.4 mph 7.6 mph 96 % 0.0 in
10:01 3.6 °F 3.0 °F 1009.0 in SSW 3.7 mph 7.6 mph 96 % 0.0 in
10:06 3.6 °F 3.0 °F 1009.0 in SW 3.1 mph 7.6 mph 96 % 0.0 in
10:07 3.6 °F 3.0 °F 1009.0 in SW 3.1 mph 7.6 mph 96 % 0.0 in
10:11 3.7 °F 3.1 °F 1009.0 in SW 1.8 mph 5.0 mph 96 % 0.0 in
10:13 3.7 °F 3.1 °F 1009.0 in SW 1.1 mph 5.0 mph 96 % 0.0 in
10:17 3.7 °F 3.1 °F 1009.0 in SSW 0.2 mph 1.8 mph 96 % 0.0 in
10:20 3.8 °F 3.2 °F 1009.0 in Calm   3.5 mph 96 % 0.0 in
10:23 3.8 °F 3.2 °F 1009.0 in SSW 0.3 mph 3.5 mph 96 % 0.0 in
10:26 3.9 °F 3.3 °F 1009.0 in SSW 0.3 mph 3.5 mph 96 % 0.0 in
10:31 4.0 °F 3.4 °F 1009.0 in North 0.2 mph   96 % 0.0 in
10:32 4.0 °F 3.4 °F 1009.0 in Calm     96 % 0.0 in
10:33 4.0 °F 3.4 °F 1009.0 in Calm   3.2 mph 96 % 0.0 in
10:38 4.0 °F 3.4 °F 1009.0 in SSW 0.2 mph 3.2 mph 96 % 0.0 in
10:39 4.0 °F 3.4 °F 1009.0 in SSW 0.2 mph 3.2 mph 96 % 0.0 in
10:44 4.1 °F 3.5 °F 1009.0 in SE 0.8 mph 3.5 mph 96 % 0.0 in
10:49 4.1 °F 3.5 °F 1009.0 in SE 1.3 mph 4.0 mph 96 % 0.0 in
10:52 4.1 °F 3.5 °F 1009.0 in SE 1.4 mph 4.0 mph 96 % 0.0 in
10:57 4.1 °F 3.5 °F 1009.0 in SE 0.8 mph 4.0 mph 96 % 0.0 in
10:58 4.1 °F 3.5 °F 1009.0 in SE 1.0 mph 4.0 mph 96 % 0.0 in
11:03 4.2 °F 3.6 °F 1009.0 in South 0.3 mph 2.6 mph 96 % 0.0 in
11:08 4.2 °F 3.6 °F 1009.0 in North 0.2 mph   96 % 0.0 in
11:09 4.2 °F 3.6 °F 1009.0 in Calm     96 % 0.0 in
11:13 4.1 °F 3.5 °F 1009.0 in Calm     96 % 0.0 in
11:15 4.2 °F 3.6 °F 1009.0 in Calm     96 % 0.0 in
11:20 4.2 °F 3.6 °F 1009.0 in Calm     96 % 0.0 in
11:21 4.2 °F 3.6 °F 1009.0 in Calm     96 % 0.0 in
11:26 4.3 °F 3.7 °F 1009.0 in Calm     96 % 0.0 in
11:28 4.3 °F 3.7 °F 1009.0 in Calm     96 % 0.0 in
11:31 4.3 °F 3.7 °F 1009.0 in Calm     96 % 0.0 in
11:36 4.4 °F 3.8 °F 1009.0 in Calm     96 % 0.0 in
11:37 4.4 °F 3.8 °F 1009.0 in Calm     96 % 0.0 in
11:42 4.4 °F 3.8 °F 1009.0 in Calm     96 % 0.0 in
11:46 4.5 °F 3.9 °F 1009.0 in Calm     96 % 0.0 in
11:49 4.6 °F 4.0 °F 1009.0 in Calm     96 % 0.0 in
11:54 4.7 °F 4.1 °F 1009.0 in SE 0.5 mph 4.7 mph 96 % 0.0 in
11:58 4.7 °F 4.1 °F 1010.0 in SE 1.3 mph 4.7 mph 96 % 0.0 in
12:03 4.8 °F 4.2 °F 1010.0 in SE 2.4 mph 5.5 mph 96 % 0.0 in
12:05 4.9 °F 4.3 °F 1010.0 in SE 2.6 mph 5.5 mph 96 % 0.0 in
12:10 5.0 °F 4.4 °F 1010.0 in SE 3.7 mph 5.5 mph 96 % 0.0 in
12:11 5.0 °F 4.4 °F 1010.0 in SE 3.9 mph 5.8 mph 96 % 0.0 in
12:16 5.1 °F 4.5 °F 1010.0 in SE 2.7 mph 5.8 mph 96 % 0.0 in
12:18 5.2 °F 4.6 °F 1010.0 in SE 2.1 mph 5.8 mph 96 % 0.0 in
12:23 5.5 °F 4.9 °F 1010.0 in SE 0.5 mph 4.0 mph 96 % 0.0 in
12:25 5.6 °F 5.0 °F 1010.0 in NE 0.3 mph 5.5 mph 96 % 0.0 in
12:30 5.8 °F 5.2 °F 1010.0 in ENE 1.1 mph 5.5 mph 96 % 0.0 in
12:34 6.1 °F 5.5 °F 1010.0 in NE 1.3 mph 5.5 mph 96 % 0.0 in
12:35 6.1 °F 5.5 °F 1010.0 in ENE 1.3 mph 4.7 mph 96 % 0.0 in
12:40 6.1 °F 5.5 °F 1010.0 in East 0.3 mph 2.6 mph 96 % 0.0 in
12:47 6.4 °F 5.8 °F 1009.0 in Calm   1.4 mph 96 % 0.0 in
12:52 6.5 °F 5.9 °F 1009.0 in Calm   1.4 mph 96 % 0.0 in
12:57 6.5 °F 5.9 °F 1009.0 in SSW 0.2 mph 2.1 mph 96 % 0.0 in
13:02 6.5 °F 5.8 °F 1009.0 in SW 0.2 mph 2.1 mph 95 % 0.0 in
13:03 6.5 °F 5.8 °F 1009.0 in SW 0.2 mph 2.1 mph 95 % 0.0 in
13:04 6.5 °F 5.8 °F 1009.0 in SW 0.2 mph 2.1 mph 95 % 0.0 in
13:09 6.5 °F 5.8 °F 1009.0 in Calm     95 % 0.0 in
13:14 6.5 °F 5.8 °F 1009.0 in Calm     95 % 0.0 in
13:15 6.5 °F 5.8 °F 1009.0 in Calm   4.7 mph 95 % 0.0 in
13:19 6.6 °F 5.8 °F 1009.0 in South 1.0 mph 5.5 mph 95 % 0.0 in
13:22 6.7 °F 5.9 °F 1009.0 in SSW 1.9 mph 5.5 mph 95 % 0.0 in
13:27 6.7 °F 5.9 °F 1009.0 in SW 3.5 mph 6.9 mph 95 % 0.0 in
13:32 6.7 °F 5.9 °F 1010.0 in SW 3.2 mph 6.9 mph 95 % 0.0 in
13:33 6.7 °F 5.9 °F 1010.0 in SW 3.2 mph 6.9 mph 95 % 0.0 in
13:34 6.7 °F 5.9 °F 1010.0 in SW 3.1 mph 5.5 mph 95 % 0.0 in
13:39 6.7 °F 5.9 °F 1010.0 in SW 3.1 mph 5.5 mph 95 % 0.0 in
13:43 6.7 °F 5.9 °F 1010.0 in SW 2.6 mph 5.5 mph 95 % 0.0 in
13:44 6.7 °F 5.9 °F 1010.0 in WSW 2.3 mph 5.5 mph 95 % 0.0 in
13:48 6.6 °F 5.7 °F 1010.0 in SW 1.0 mph 6.1 mph 94 % 0.0 in
13:53 6.6 °F 5.7 °F 1010.0 in SW 1.4 mph 6.4 mph 94 % 0.0 in
13:56 6.6 °F 5.7 °F 1010.0 in SW 2.9 mph 6.9 mph 94 % 0.0 in
14:01 6.5 °F 5.6 °F 1010.0 in SW 4.3 mph 7.6 mph 94 % 0.0 in
14:02 6.5 °F 5.6 °F 1010.0 in SW 4.3 mph 7.6 mph 94 % 0.0 in
14:07 6.4 °F 5.5 °F 1010.0 in SW 3.2 mph 7.6 mph 94 % 0.0 in
14:12 6.4 °F 5.5 °F 1010.0 in SW 1.3 mph 5.5 mph 94 % 0.0 in
14:15 6.3 °F 5.3 °F 1010.0 in SW 1.3 mph 5.5 mph 93 % 0.0 in
14:17 6.3 °F 5.3 °F 1010.0 in SW 1.4 mph 5.5 mph 93 % 0.0 in
14:21 6.3 °F 5.3 °F 1010.0 in SW 2.4 mph 5.5 mph 93 % 0.0 in
14:26 6.3 °F 5.3 °F 1010.0 in SW 1.3 mph 4.3 mph 93 % 0.0 in
14:27 6.3 °F 5.3 °F 1010.0 in SW 1.1 mph 5.5 mph 93 % 0.0 in
14:35 6.2 °F 5.2 °F 1011.1 in West 1.8 mph 5.5 mph 93 % 0.0 in
14:37 6.2 °F 5.2 °F 1011.1 in WSW 1.6 mph 4.7 mph 93 % 0.0 in
14:42 6.2 °F 5.2 °F 1011.1 in SW 1.3 mph 5.5 mph 93 % 0.0 in
14:43 6.2 °F 5.2 °F 1011.1 in SW 1.6 mph 5.8 mph 93 % 0.0 in
14:46 6.2 °F 5.0 °F 1011.1 in SW 2.4 mph 5.8 mph 92 % 0.0 in
14:49 6.2 °F 5.0 °F 1011.1 in SSW 3.2 mph 5.8 mph 92 % 0.0 in
14:54 6.1 °F 4.9 °F 1011.1 in SW 4.2 mph 6.4 mph 92 % 0.0 in
14:55 6.1 °F 4.9 °F 1011.1 in SSW 3.9 mph 6.4 mph 92 % 0.0 in
14:57 6.1 °F 4.9 °F 1011.1 in SW 3.9 mph 6.4 mph 92 % 0.0 in
15:02 6.1 °F 4.9 °F 1011.1 in SW 2.3 mph 4.7 mph 92 % 0.0 in
15:06 6.1 °F 4.9 °F 1011.1 in SW 1.1 mph 4.3 mph 92 % 0.0 in
15:11 6.1 °F 4.9 °F 1011.1 in SW 1.3 mph 5.8 mph 92 % 0.0 in
15:13 6.0 °F 4.8 °F 1011.1 in SW 1.4 mph 5.8 mph 92 % 0.0 in
15:18 6.0 °F 4.8 °F 1011.1 in SW 1.1 mph 5.8 mph 92 % 0.0 in
15:20 6.0 °F 4.8 °F 1011.1 in WSW 1.0 mph 3.5 mph 92 % 0.0 in
15:23 6.0 °F 4.8 °F 1011.1 in SW 0.3 mph 3.5 mph 92 % 0.0 in
15:25 6.0 °F 4.7 °F 1011.1 in SW 0.6 mph 4.0 mph 91 % 0.0 in
15:29 5.9 °F 4.7 °F 1011.1 in SW 1.4 mph 4.0 mph 92 % 0.0 in
15:32 5.9 °F 4.7 °F 1011.1 in SW 1.6 mph 4.0 mph 92 % 0.0 in
15:37 5.8 °F 4.6 °F 1011.1 in WSW 0.5 mph 2.1 mph 92 % 0.0 in
15:42 5.7 °F 4.5 °F 1011.1 in WSW 0.2 mph 1.8 mph 92 % 0.0 in
15:44 5.7 °F 4.5 °F 1010.0 in Calm     92 % 0.0 in
15:49 5.6 °F 4.2 °F 1010.0 in Calm     91 % 0.0 in
15:50 5.5 °F 4.2 °F 1010.0 in Calm     91 % 0.0 in
15:52 5.4 °F 4.1 °F 1010.0 in WSW 0.2 mph 4.0 mph 91 % 0.0 in
15:56 5.3 °F 3.9 °F 1010.0 in SW 0.6 mph 4.0 mph 91 % 0.0 in
15:57 5.3 °F 3.9 °F 1010.0 in SW 0.8 mph 4.0 mph 91 % 0.0 in
16:02 5.1 °F 3.8 °F 1011.1 in WSW 1.0 mph 5.8 mph 91 % 0.0 in
16:03 5.1 °F 3.8 °F 1011.1 in WSW 1.0 mph 5.8 mph 91 % 0.0 in
16:08 5.0 °F 3.7 °F 1011.1 in WSW 1.3 mph 5.8 mph 91 % 0.0 in
16:09 4.8 °F 3.4 °F 1011.1 in WSW 1.4 mph 5.8 mph 91 % 0.0 in
16:14 4.7 °F 3.3 °F 1011.1 in SW 1.0 mph 3.5 mph 91 % 0.0 in
16:15 4.7 °F 3.3 °F 1011.1 in SW 0.6 mph 3.5 mph 91 % 0.0 in
16:20 4.5 °F 3.2 °F 1011.1 in Calm     91 % 0.0 in
16:21 4.5 °F 3.2 °F 1011.1 in Calm     91 % 0.0 in
16:22 4.4 °F 3.1 °F 1011.1 in Calm     91 % 0.0 in
16:27 4.3 °F 2.9 °F 1011.1 in Calm     91 % 0.0 in
16:29 4.2 °F 2.9 °F 1012.1 in Calm     91 % 0.0 in
16:34 4.0 °F 2.7 °F 1012.1 in Calm   1.8 mph 91 % 0.0 in
16:36 4.0 °F 2.7 °F 1012.1 in Calm   1.8 mph 91 % 0.0 in
16:39 3.8 °F 2.4 °F 1012.1 in Calm   1.8 mph 91 % 0.0 in
16:44 3.6 °F 2.3 °F 1012.1 in NNW 0.2 mph 2.6 mph 91 % 0.0 in
16:49 3.4 °F 2.1 °F 1012.1 in NW 0.3 mph 2.6 mph 91 % 0.0 in
16:50 3.4 °F 2.1 °F 1012.1 in NW 0.3 mph 2.6 mph 91 % 0.0 in
16:55 3.3 °F 1.9 °F 1012.1 in WNW 0.2 mph 2.1 mph 91 % 0.0 in
17:00 3.1 °F 1.8 °F 1012.1 in Calm     91 % 0.0 in
17:05 3.0 °F 1.7 °F 1012.1 in Calm     91 % 0.0 in
17:06 2.9 °F 1.6 °F 1012.1 in Calm     91 % 0.0 in
17:11 2.7 °F 1.4 °F 1012.1 in Calm     91 % 0.0 in
17:13 2.6 °F 1.3 °F 1012.1 in Calm     91 % 0.0 in
17:18 2.6 °F 1.3 °F 1012.1 in Calm     91 % 0.0 in
17:23 2.4 °F 1.1 °F 1012.1 in Calm     91 % 0.0 in
17:28 2.3 °F 1.0 °F 1012.1 in Calm     91 % 0.0 in
17:29 2.3 °F 1.0 °F 1012.1 in Calm     91 % 0.0 in
17:34 2.1 °F 0.8 °F 1012.1 in NNW 0.8 mph 3.2 mph 91 % 0.0 in
17:37 2.1 °F 0.8 °F 1012.1 in NNW 1.0 mph 3.2 mph 91 % 0.0 in
17:42 2.0 °F 0.7 °F 1012.1 in NNW 0.8 mph 3.2 mph 91 % 0.0 in
17:47 1.9 °F 0.6 °F 1013.1 in West 0.6 mph 5.0 mph 91 % 0.0 in
17:50 1.9 °F 0.6 °F 1013.1 in WNW 0.6 mph 5.0 mph 91 % 0.0 in
17:53 1.9 °F 0.6 °F 1013.1 in WNW 1.1 mph 5.0 mph 91 % 0.0 in
17:56 1.9 °F 0.6 °F 1013.1 in WSW 1.4 mph 4.0 mph 91 % 0.0 in
18:01 2.0 °F 0.7 °F 1013.1 in WSW 1.3 mph 4.0 mph 91 % 0.0 in
18:05 2.0 °F 0.7 °F 1013.1 in SW 0.6 mph 4.0 mph 91 % 0.0 in
18:10 2.1 °F 0.8 °F 1013.1 in North 0.3 mph 4.0 mph 91 % 0.0 in
18:14 2.1 °F 0.8 °F 1013.1 in North 0.3 mph 4.0 mph 91 % 0.0 in
18:15 2.2 °F 1.1 °F 1013.1 in North 0.3 mph 4.0 mph 92 % 0.0 in
18:20 2.3 °F 1.1 °F 1013.1 in Calm     92 % 0.0 in
18:24 2.4 °F 1.2 °F 1013.1 in Calm     92 % 0.0 in
18:29 2.5 °F 1.3 °F 1013.1 in Calm     92 % 0.0 in
18:30 2.5 °F 1.3 °F 1013.1 in Calm     92 % 0.0 in
18:35 2.6 °F 1.4 °F 1013.1 in NNW 0.2 mph 4.7 mph 92 % 0.0 in
18:39 2.7 °F 1.7 °F 1013.1 in NNW 0.6 mph 4.7 mph 93 % 0.0 in
18:44 2.7 °F 1.7 °F 1013.1 in NNW 1.4 mph 5.0 mph 93 % 0.0 in
18:47 2.7 °F 1.7 °F 1013.1 in NNW 1.0 mph 5.0 mph 93 % 0.0 in
18:52 2.7 °F 1.7 °F 1013.1 in West 0.6 mph 5.0 mph 93 % 0.0 in
18:56 2.7 °F 1.7 °F 1013.1 in West 1.6 mph 5.0 mph 93 % 0.0 in
18:58 2.7 °F 1.7 °F 1013.1 in West 1.6 mph 5.0 mph 93 % 0.0 in
19:02 2.7 °F 1.7 °F 1013.1 in West 1.1 mph 4.0 mph 93 % 0.0 in
19:07 2.7 °F 1.7 °F 1013.1 in NW 0.2 mph 3.2 mph 93 % 0.0 in
19:10 2.7 °F 1.7 °F 1013.1 in West 0.2 mph 2.1 mph 93 % 0.0 in
19:15 2.6 °F 1.6 °F 1013.1 in Calm   2.1 mph 93 % 0.0 in
19:16 2.6 °F 1.6 °F 1013.1 in Calm   2.1 mph 93 % 0.0 in
19:21 2.6 °F 1.6 °F 1013.1 in Calm   1.4 mph 93 % 0.0 in
19:26 2.5 °F 1.5 °F 1013.1 in Calm   2.6 mph 93 % 0.0 in
19:29 2.4 °F 1.6 °F 1012.1 in NNW 0.8 mph 5.0 mph 94 % 0.0 in
19:34 2.4 °F 1.6 °F 1012.1 in NNW 1.6 mph 5.0 mph 94 % 0.0 in
19:39 2.3 °F 1.4 °F 1012.1 in NNW 1.0 mph 4.0 mph 94 % 0.0 in
19:40 2.3 °F 1.4 °F 1012.1 in NNW 0.8 mph 4.0 mph 94 % 0.0 in
19:45 2.3 °F 1.4 °F 1012.1 in Calm     94 % 0.0 in
19:47 2.2 °F 1.3 °F 1012.1 in Calm     94 % 0.0 in
19:51 2.2 °F 1.3 °F 1012.1 in Calm     94 % 0.0 in
19:52 2.1 °F 1.2 °F 1012.1 in Calm     94 % 0.0 in
19:56 2.1 °F 1.2 °F 1012.1 in Calm     94 % 0.0 in
19:57 2.1 °F 1.2 °F 1012.1 in Calm     94 % 0.0 in
20:03 2.1 °F 1.2 °F 1013.1 in WNW 0.3 mph 4.0 mph 94 % 0.0 in
20:08 2.0 °F 1.1 °F 1013.1 in NW 0.3 mph 4.0 mph 94 % 0.0 in
20:13 2.0 °F 1.1 °F 1013.1 in NNW 0.3 mph 3.5 mph 94 % 0.0 in
20:14 2.0 °F 1.1 °F 1013.1 in NNW 0.3 mph 3.5 mph 94 % 0.0 in
20:19 1.9 °F 1.1 °F 1013.1 in NW 0.2 mph 2.1 mph 94 % 0.0 in
20:24 1.9 °F 1.1 °F 1013.1 in NNE 0.2 mph 2.6 mph 94 % 0.0 in
20:29 1.9 °F 1.1 °F 1013.1 in NE 0.2 mph 2.6 mph 94 % 0.0 in
20:34 1.8 °F 0.9 °F 1013.1 in Calm   2.6 mph 94 % 0.0 in
20:36 1.8 °F 1.1 °F 1013.1 in WSW 0.3 mph 2.6 mph 95 % 0.0 in
20:39 1.8 °F 1.1 °F 1013.1 in WSW 0.3 mph 2.6 mph 95 % 0.0 in
20:42 1.8 °F 1.1 °F 1013.1 in WSW 0.5 mph 2.6 mph 95 % 0.0 in
20:45 1.8 °F 1.1 °F 1013.1 in North 0.2 mph   95 % 0.0 in
20:51 1.7 °F 1.0 °F 1013.1 in Calm     95 % 0.0 in
20:56 1.7 °F 1.0 °F 1013.1 in NNW 0.2 mph 3.2 mph 95 % 0.0 in
20:57 1.7 °F 1.0 °F 1013.1 in NNW 0.3 mph 3.2 mph 95 % 0.0 in
21:02 1.6 °F 0.9 °F 1014.1 in NNW 0.5 mph 3.5 mph 95 % 0.0 in
21:06 1.6 °F 0.9 °F 1014.1 in NNW 0.2 mph 3.5 mph 95 % 0.0 in
21:11 1.6 °F 0.9 °F 1014.1 in Calm   2.6 mph 95 % 0.0 in
21:14 1.6 °F 0.9 °F 1014.1 in NNW 0.2 mph 2.6 mph 95 % 0.0 in
21:18 1.6 °F 0.9 °F 1014.1 in NNW 0.2 mph 2.6 mph 95 % 0.0 in
21:23 1.6 °F 0.9 °F 1014.1 in Calm     95 % 0.0 in
21:25 1.6 °F 0.9 °F 1014.1 in Calm   1.8 mph 95 % 0.0 in
21:26 1.6 °F 0.9 °F 1014.1 in Calm   4.3 mph 95 % 0.0 in
21:32 1.6 °F 0.9 °F 1015.1 in North 1.1 mph 5.5 mph 95 % 0.0 in
21:34 1.6 °F 0.9 °F 1015.1 in NNW 1.8 mph 5.8 mph 95 % 0.0 in
21:39 1.6 °F 0.9 °F 1015.1 in WNW 3.1 mph 6.9 mph 95 % 0.0 in
21:41 1.6 °F 0.9 °F 1015.1 in WNW 2.7 mph 6.9 mph 95 % 0.0 in
21:46 1.6 °F 0.9 °F 1015.1 in WSW 1.1 mph 5.8 mph 95 % 0.0 in
21:51 1.6 °F 0.9 °F 1015.1 in WSW 1.3 mph 5.8 mph 95 % 0.0 in
21:52 1.6 °F 0.9 °F 1015.1 in WSW 1.4 mph 5.8 mph 95 % 0.0 in
21:57 1.6 °F 0.9 °F 1015.1 in WNW 2.3 mph 5.0 mph 95 % 0.0 in
21:59 1.6 °F 0.9 °F 1015.1 in WNW 1.9 mph 5.0 mph 95 % 0.0 in
22:04 1.6 °F 0.9 °F 1015.1 in NNW 1.1 mph 5.0 mph 95 % 0.0 in
22:05 1.6 °F 0.9 °F 1015.1 in NNW 1.1 mph 5.0 mph 95 % 0.0 in
22:10 1.6 °F 0.9 °F 1015.1 in ENE 0.5 mph 4.3 mph 95 % 0.0 in
22:11 1.6 °F 0.9 °F 1015.1 in ENE 0.5 mph 4.3 mph 95 % 0.0 in
22:13 1.6 °F 0.9 °F 1015.1 in NE 0.5 mph 4.3 mph 95 % 0.0 in
22:16 1.6 °F 0.9 °F 1015.1 in West 1.1 mph 5.0 mph 95 % 0.0 in
22:22 1.6 °F 0.9 °F 1015.1 in West 1.8 mph 5.0 mph 95 % 0.0 in
22:27 1.6 °F 0.9 °F 1015.1 in WNW 0.8 mph 4.3 mph 95 % 0.0 in
22:28 1.6 °F 0.9 °F 1015.1 in WNW 0.6 mph 4.3 mph 95 % 0.0 in
22:33 1.6 °F 0.9 °F 1015.1 in North 0.2 mph 2.6 mph 95 % 0.0 in
22:36 1.5 °F 0.8 °F 1015.1 in NW 0.3 mph 3.2 mph 95 % 0.0 in
22:41 1.5 °F 0.8 °F 1015.1 in NW 0.5 mph 3.2 mph 95 % 0.0 in
22:46 1.4 °F 0.8 °F 1014.1 in WNW 0.6 mph 4.7 mph 96 % 0.0 in
22:49 1.4 °F 0.8 °F 1014.1 in NW 1.0 mph 4.7 mph 96 % 0.0 in
22:54 1.5 °F 0.9 °F 1014.1 in WNW 0.6 mph 4.0 mph 96 % 0.0 in
22:55 1.5 °F 0.9 °F 1014.1 in North 0.6 mph 3.2 mph 96 % 0.0 in
22:56 1.5 °F 0.9 °F 1014.1 in NNE 0.5 mph 4.0 mph 96 % 0.0 in
23:01 1.5 °F 0.9 °F 1014.1 in NE 0.6 mph 4.3 mph 96 % 0.0 in
23:06 1.5 °F 0.9 °F 1014.1 in NNE 1.0 mph 4.3 mph 96 % 0.0 in
23:08 1.5 °F 0.9 °F 1014.1 in North 1.0 mph 4.3 mph 96 % 0.0 in
23:09 1.5 °F 0.9 °F 1014.1 in North 0.8 mph 4.3 mph 96 % 0.0 in
23:14 1.4 °F 0.8 °F 1015.1 in NNW 1.6 mph 4.7 mph 96 % 0.0 in
23:17 1.4 °F 0.8 °F 1015.1 in NW 1.1 mph 4.7 mph 96 % 0.0 in
23:19 1.4 °F 0.8 °F 1015.1 in NW 1.0 mph 4.7 mph 96 % 0.0 in
23:24 1.4 °F 0.8 °F 1015.1 in NW 0.5 mph 4.3 mph 96 % 0.0 in
23:26 1.3 °F 0.7 °F 1015.1 in NNW 0.6 mph 4.3 mph 96 % 0.0 in
23:31 1.3 °F 0.7 °F 1015.1 in NNW 0.6 mph 4.3 mph 96 % 0.0 in
23:32 1.3 °F 0.7 °F 1015.1 in NNW 0.5 mph 4.3 mph 96 % 0.0 in
23:37 1.2 °F 0.6 °F 1015.1 in NNW 0.3 mph 2.6 mph 96 % 0.0 in
23:39 1.2 °F 0.6 °F 1015.1 in NNW 0.3 mph 2.6 mph 96 % 0.0 in
23:44 1.2 °F 0.6 °F 1015.1 in NNW 0.3 mph 2.6 mph 96 % 0.0 in
23:45 1.3 °F 0.7 °F 1015.1 in NNW 0.2 mph 2.6 mph 96 % 0.0 in
23:50 1.3 °F 0.7 °F 1015.1 in NW 0.3 mph 3.5 mph 96 % 0.0 in
23:51 1.3 °F 0.7 °F 1015.1 in NW 0.3 mph 3.5 mph 96 % 0.0 in
23:56 1.3 °F 0.7 °F 1015.1 in NW 0.3 mph 3.5 mph 96 % 0.0 in
Vremenska postaja Senovo
Podatki zbrani iz Weather Underground - 3.5 mb

Script developed by  Jim McMurry - jmcmurry@mwt.net Adapted for the template by  Wim van der Kuil - Leuven-Template.eu

Vremenski podatki so objavljeni na:

European Weather Network

WeatherCloud

Weather Underground

AWEKAS

HAMweather, WeatherForYou, PWS Weather

MapView

Geostik

Slovenia weather network

Oprema, ki se uporablja:

Vremenski program
Cumulus

Vremenski server
Asus

Cumulus

Asus